Погода Олиналана 2 недели

Герреро, Мексика

28 февраля-12 марта
  • 28февраля
    Сегодня
    +19°
    +35°
    Ясно и безоблачно
    ВремяПогодаТемператураВлажностьДавлениеВетер, м/сВероятность осадков
    00:00Ясно и безоблачно+20°C79 %643 мм2.1 м/с1 %
    03:00Ясно и безоблачно+19°C73 %642 мм1.3 м/с1 %
    06:00Ясно и безоблачно+17°C71 %642 мм0.5 м/с1 %
    09:00Ясно и безоблачно+22°C41 %645 мм0.8 м/с1 %
    12:00Ясно и безоблачно+30°C29 %647 мм2.0 м/с1 %
    15:00Ясно и безоблачно+34°C18 %645 мм1.7 м/с1 %
    18:00Ясно и безоблачно+29°C43 %644 мм3.6 м/с1 %
    21:00Ясно и безоблачно+23°C73 %644 мм2.5 м/с1 %
  • 29февраля
    Четверг
    +15°
    +33°
    Облачно с прояснениями
    ВремяПогодаТемператураВлажностьДавлениеВетер, м/сВероятность осадков
    00:00Ясно и безоблачно+20°C78 %643 мм0.9 м/с1 %
    03:00Ясно и безоблачно+20°C70 %643 мм0.7 м/с1 %
    06:00Ясно и безоблачно+21°C58 %644 мм0.7 м/с1 %
    09:00Ясно и безоблачно+21°C50 %646 мм1.1 м/с1 %
    12:00Ясно и безоблачно+29°C28 %647 мм1.7 м/с1 %
    15:00Облачно с прояснениями+33°C24 %646 мм3.0 м/с2 %
    18:00Ясно и безоблачно+29°C37 %645 мм5.4 м/с4 %
    21:00Ясно и безоблачно+23°C57 %646 мм2.7 м/с1 %
  • 01марта
    Пятница
    +16°
    +33°
    Небольшая облачность
    ВремяПогодаТемператураВлажностьДавлениеВетер, м/сВероятность осадков
    00:00Ясно и безоблачно+20°C57 %645 мм2.4 м/с1 %
    03:00Ясно и безоблачно+19°C57 %644 мм1.5 м/с1 %
    06:00Ясно и безоблачно+17°C59 %643 мм0.7 м/с1 %
    09:00Облачно с прояснениями+21°C39 %646 мм0.6 м/с1 %
    12:00Небольшая облачность+30°C27 %648 мм3.3 м/с1 %
    15:00Небольшая облачность+33°C24 %646 мм3.7 м/с1 %
    18:00Ясно и безоблачно+28°C39 %646 мм5.6 м/с1 %
    21:00Ясно и безоблачно+22°C59 %646 мм2.6 м/с1 %
  • 02марта
    Суббота
    +16°
    +33°
    Ясно и безоблачно
    ВремяПогодаТемператураВлажностьДавлениеВетер, м/сВероятность осадков
    00:00Ясно и безоблачно+20°C51 %645 мм2.6 м/с1 %
    03:00Ясно и безоблачно+19°C50 %644 мм1.5 м/с1 %
    06:00Ясно и безоблачно+17°C60 %643 мм0.7 м/с1 %
    09:00Ясно и безоблачно+21°C42 %646 мм1.1 м/с1 %
    12:00Ясно и безоблачно+29°C21 %648 мм3.3 м/с1 %
    15:00Ясно и безоблачно+32°C20 %646 мм3.3 м/с1 %
    18:00Ясно и безоблачно+29°C40 %645 мм5.1 м/с1 %
    21:00Ясно и безоблачно+22°C61 %645 мм2.6 м/с1 %
  • 03марта
    Воскресенье
    +16°
    +34°
    Ясно и безоблачно
    ВремяПогодаТемператураВлажностьДавлениеВетер, м/сВероятность осадков
    00:00Ясно и безоблачно+19°C61 %644 мм2.4 м/с1 %
    03:00Ясно и безоблачно+19°C53 %643 мм1.7 м/с1 %
    06:00Ясно и безоблачно+17°C56 %642 мм0.7 м/с1 %
    09:00Ясно и безоблачно+21°C39 %645 мм0.9 м/с1 %
    12:00Ясно и безоблачно+29°C18 %647 мм3.4 м/с1 %
    15:00Ясно и безоблачно+33°C20 %645 мм3.5 м/с1 %
    18:00Ясно и безоблачно+30°C32 %644 мм5.0 м/с1 %
    21:00Ясно и безоблачно+23°C51 %644 мм2.5 м/с1 %
Мы используем cookies
Соглашаюсь